Orbital elements of FREGAT DEB
| Launched | 17 July 2011 |
| Flight ended | – |
| Launch site | Tyuratam Missile and Space Center, Kazakhstan (Also known as Baikonur Cosmodrome) |
| Owner | Commonwealth of Independent States (former USSR) |
| NORAD ID | 45971 |
| Date fetched |
Epoch osculation |
Inc. [°] |
Ecc. | RA asc node [hr] |
Arg Peri. [°] |
Mean anom [°] |
Mean motion [rev/day] |
Abs. mag |
| Date fetched |
Epoch osculation |
Inc. [°] |
Ecc. | RA asc node [hr] |
Arg Peri. [°] |
Mean anom [°] |
Mean motion [rev/day] |
Abs. mag |
| 2026 May 08 17:57 | 2026 May 04 18:26:32 | 51.4538 | 0.11216 | 10.2064 | 74.0574 | 298.0823 | 13.05464 | – |
| 2026 May 07 17:58 | 2026 May 04 18:26:32 | 51.4538 | 0.11216 | 10.2064 | 74.0574 | 298.0823 | 13.05464 | – |
| 2026 May 06 17:57 | 2026 May 04 18:26:32 | 51.4538 | 0.11216 | 10.2064 | 74.0574 | 298.0823 | 13.05464 | – |
| 2026 May 05 17:57 | 2026 May 04 18:26:32 | 51.4538 | 0.11216 | 10.2064 | 74.0574 | 298.0823 | 13.05464 | – |
| 2026 May 04 17:57 | 2026 Apr 30 09:41:50 | 51.4548 | 0.11224 | 11.2010 | 62.8099 | 298.0823 | 13.05464 | – |
| 2026 May 03 17:57 | 2026 Apr 30 09:41:50 | 51.4548 | 0.11224 | 11.2010 | 62.8099 | 298.0823 | 13.05464 | – |
| 2026 May 02 17:57 | 2026 Apr 30 09:41:50 | 51.4548 | 0.11224 | 11.2010 | 62.8099 | 298.0823 | 13.05464 | – |
| 2026 May 01 17:56 | 2026 Apr 30 09:41:50 | 51.4548 | 0.11224 | 11.2010 | 62.8099 | 298.0823 | 13.05464 | – |
| 2026 Apr 30 17:56 | 2026 Apr 30 09:41:50 | 51.4548 | 0.11224 | 11.2010 | 62.8099 | 298.0823 | 13.05464 | – |
| 2026 Apr 29 17:57 | 2026 Apr 23 10:26:33 | 51.4537 | 0.11235 | 12.7885 | 44.8606 | 298.0823 | 13.05464 | – |
| 2026 Apr 28 17:56 | 2026 Apr 23 10:26:33 | 51.4537 | 0.11235 | 12.7885 | 44.8606 | 298.0823 | 13.05464 | – |
| 2026 Apr 27 17:58 | 2026 Apr 23 10:26:33 | 51.4537 | 0.11235 | 12.7885 | 44.8606 | 298.0823 | 13.05464 | – |
| 2026 Apr 26 17:58 | 2026 Apr 23 10:26:33 | 51.4537 | 0.11235 | 12.7885 | 44.8606 | 298.0823 | 13.05464 | – |
| 2026 Apr 25 17:58 | 2026 Apr 23 10:26:33 | 51.4537 | 0.11235 | 12.7885 | 44.8606 | 298.0823 | 13.05464 | – |
| 2026 Apr 24 17:59 | 2026 Apr 23 10:26:33 | 51.4537 | 0.11235 | 12.7885 | 44.8606 | 298.0823 | 13.05464 | – |
| 2026 Apr 23 17:57 | 2026 Apr 18 23:49:26 | 51.4555 | 0.11241 | 13.8002 | 33.4183 | 298.0823 | 13.05464 | – |
| 2026 Apr 22 17:57 | 2026 Apr 18 23:49:26 | 51.4555 | 0.11241 | 13.8002 | 33.4183 | 298.0823 | 13.05464 | – |
| 2026 Apr 21 17:57 | 2026 Apr 18 23:49:26 | 51.4555 | 0.11241 | 13.8002 | 33.4183 | 298.0823 | 13.05464 | – |
| 2026 Apr 20 17:57 | 2026 Apr 18 23:49:26 | 51.4555 | 0.11241 | 13.8002 | 33.4183 | 298.0823 | 13.05464 | – |
| 2026 Apr 19 17:58 | 2026 Apr 18 23:49:26 | 51.4555 | 0.11241 | 13.8002 | 33.4183 | 298.0823 | 13.05464 | – |
| 2026 Apr 18 17:56 | 2026 Apr 12 15:13:49 | 51.4548 | 0.11247 | 15.2479 | 17.0535 | 298.0823 | 13.05464 | – |
| 2026 Apr 16 17:57 | 2026 Apr 12 15:13:49 | 51.4548 | 0.11247 | 15.2479 | 17.0535 | 298.0823 | 13.05464 | – |
| 2026 Apr 14 17:57 | 2026 Apr 12 15:13:49 | 51.4548 | 0.11247 | 15.2479 | 17.0535 | 298.0823 | 13.05464 | – |
| 2026 Apr 13 17:57 | 2026 Apr 12 15:13:49 | 51.4548 | 0.11247 | 15.2479 | 17.0535 | 298.0823 | 13.05464 | – |
| 2026 Apr 12 17:57 | 2026 Apr 08 13:46:51 | 51.4582 | 0.11254 | 16.1723 | 6.5971 | 298.0823 | 13.05464 | – |
| 2026 Apr 11 17:57 | 2026 Apr 08 13:46:51 | 51.4582 | 0.11254 | 16.1723 | 6.5971 | 298.0823 | 13.05464 | – |